createdAt,value
2018-07-14T00:01:12.116Z,49.75
2018-07-14T00:03:40.279Z,49.17
2018-07-14T00:06:08.450Z,48.85
2018-07-14T00:08:36.726Z,50.69
2018-07-14T00:11:04.833Z,48.67
2018-07-14T00:13:33.082Z,49.05
2018-07-14T00:16:01.139Z,49.40
2018-07-14T00:18:29.223Z,49.73
2018-07-14T00:20:57.286Z,50.94
2018-07-14T00:23:25.504Z,49.20
2018-07-14T00:25:58.965Z,49.30
2018-07-14T00:28:27.108Z,49.67
2018-07-14T00:30:55.158Z,48.59
2018-07-14T00:33:23.233Z,49.57
2018-07-14T00:35:51.341Z,50.19
2018-07-14T00:38:19.469Z,50.57
2018-07-14T00:40:47.585Z,50.66
2018-07-14T00:43:15.698Z,49.25
2018-07-14T00:45:43.796Z,49.81
2018-07-14T00:48:12.117Z,50.22
2018-07-14T00:50:40.401Z,49.17
2018-07-14T00:53:08.527Z,50.51
2018-07-14T00:55:36.709Z,49.62
2018-07-14T00:58:05.067Z,48.72
2018-07-14T01:00:33.272Z,49.91
2018-07-14T01:03:01.385Z,50.20
2018-07-14T01:05:29.441Z,50.33
2018-07-14T01:07:57.630Z,49.27
2018-07-14T01:10:25.731Z,49.54
2018-07-14T01:12:53.823Z,49.69
2018-07-14T01:15:21.896Z,49.66
2018-07-14T01:17:50.074Z,50.02
2018-07-14T01:20:18.128Z,51.02
2018-07-14T01:22:46.286Z,50.60
2018-07-14T01:25:14.469Z,50.62
2018-07-14T01:27:42.694Z,49.92
2018-07-14T01:30:10.892Z,50.72
2018-07-14T01:32:39.031Z,50.52
2018-07-14T01:35:07.642Z,50.65
2018-07-14T01:37:35.852Z,50.00
2018-07-14T01:40:04.020Z,50.75
2018-07-14T01:42:32.305Z,49.75
2018-07-14T01:45:00.554Z,50.44
2018-07-14T01:47:29.077Z,50.95
2018-07-14T01:49:57.251Z,50.88
2018-07-14T01:52:25.458Z,50.71
2018-07-14T01:54:53.543Z,51.97
2018-07-14T01:57:21.716Z,51.68
2018-07-14T01:59:50.049Z,52.60
2018-07-14T02:02:18.183Z,52.00
2018-07-14T02:04:46.277Z,52.15
2018-07-14T02:07:14.532Z,53.98
2018-07-14T02:09:42.611Z,52.34
2018-07-14T02:12:10.807Z,52.02
2018-07-14T02:14:38.906Z,52.47
2018-07-14T02:17:06.978Z,52.47
2018-07-14T02:19:35.045Z,51.51
2018-07-14T02:22:03.154Z,51.82
2018-07-14T02:24:32.543Z,51.03
2018-07-14T02:27:00.605Z,51.21
2018-07-14T02:29:28.698Z,52.27
2018-07-14T02:31:56.825Z,51.83
2018-07-14T02:34:24.931Z,52.52
2018-07-14T02:36:53.280Z,51.90
2018-07-14T02:39:21.351Z,52.26
2018-07-14T02:41:50.343Z,53.42
2018-07-14T02:44:18.882Z,53.37
2018-07-14T02:46:47.628Z,52.86
2018-07-14T02:49:15.775Z,53.41
2018-07-14T02:51:44.128Z,53.77
2018-07-14T02:54:12.240Z,54.74
2018-07-14T02:56:40.680Z,54.46
2018-07-14T02:59:08.973Z,53.73
2018-07-14T03:01:37.030Z,52.66
2018-07-14T03:04:05.145Z,53.64
2018-07-14T03:06:34.112Z,52.91
2018-07-14T03:09:02.255Z,53.27
2018-07-14T03:11:32.105Z,53.53
2018-07-14T03:14:00.238Z,53.88
2018-07-14T03:16:28.619Z,53.85
2018-07-14T03:18:56.807Z,53.92
2018-07-14T03:21:24.882Z,55.00
2018-07-14T03:23:52.996Z,54.45
2018-07-14T03:26:21.087Z,55.68
2018-07-14T03:28:49.684Z,54.96
2018-07-14T03:31:17.976Z,54.87
2018-07-14T03:33:46.220Z,54.71
2018-07-14T03:36:14.303Z,54.42
2018-07-14T03:38:42.387Z,55.60
2018-07-14T03:41:10.861Z,56.02
2018-07-14T03:43:39.027Z,54.64
2018-07-14T03:46:07.106Z,54.69
2018-07-14T03:48:35.343Z,54.80
2018-07-14T03:51:03.483Z,55.90
2018-07-14T03:53:31.572Z,55.03
2018-07-14T03:55:59.699Z,56.06
2018-07-14T03:58:27.811Z,55.34
2018-07-14T04:00:55.880Z,54.74
2018-07-14T04:03:24.209Z,54.92
2018-07-14T04:05:52.276Z,54.56
2018-07-14T04:08:20.403Z,54.45
2018-07-14T04:10:49.134Z,55.28
2018-07-14T04:13:17.228Z,56.09
2018-07-14T04:15:45.493Z,55.58
2018-07-14T04:18:13.571Z,55.09
2018-07-14T04:20:41.958Z,56.36
2018-07-14T04:23:10.957Z,55.38
2018-07-14T04:25:39.112Z,57.63
2018-07-14T04:28:07.227Z,56.32
2018-07-14T04:30:35.351Z,57.69
2018-07-14T04:33:03.521Z,57.58
2018-07-14T04:35:31.614Z,59.79
2018-07-14T04:37:59.742Z,59.32
2018-07-14T04:40:27.813Z,60.39
2018-07-14T04:42:56.015Z,60.30
2018-07-14T04:45:24.134Z,61.53
2018-07-14T04:47:52.395Z,60.93
2018-07-14T04:50:20.499Z,63.00
2018-07-14T04:52:48.643Z,62.42
2018-07-14T04:55:16.770Z,64.07
2018-07-14T04:57:45.518Z,64.54
2018-07-14T05:00:13.643Z,62.66
2018-07-14T05:02:41.761Z,61.25
2018-07-14T05:05:09.963Z,61.76
2018-07-14T05:07:38.201Z,61.99
2018-07-14T05:10:06.428Z,62.27
2018-07-14T05:12:34.654Z,61.43
2018-07-14T05:15:02.799Z,62.56
2018-07-14T05:17:30.922Z,62.50
2018-07-14T05:19:58.999Z,63.60
2018-07-14T05:22:27.506Z,63.46
2018-07-14T05:24:55.630Z,62.47
2018-07-14T05:27:23.847Z,61.01
2018-07-14T05:29:51.967Z,62.50
2018-07-14T05:32:20.141Z,61.14
2018-07-14T05:34:48.759Z,61.57
2018-07-14T05:37:16.941Z,60.81
2018-07-14T05:39:45.031Z,62.16
2018-07-14T05:42:14.119Z,60.89
2018-07-14T05:44:42.347Z,61.02
2018-07-14T05:47:11.164Z,60.65
2018-07-14T05:49:39.333Z,60.18
2018-07-14T05:52:07.391Z,60.03
2018-07-14T05:54:35.655Z,59.77
2018-07-14T05:57:03.711Z,61.39
2018-07-14T05:59:31.794Z,60.51
2018-07-14T06:01:59.843Z,61.57
2018-07-14T06:04:27.952Z,61.33
2018-07-14T06:06:56.108Z,59.68
2018-07-14T06:09:24.192Z,59.66
2018-07-14T06:11:52.324Z,59.39
2018-07-14T06:14:20.504Z,60.09
2018-07-14T06:16:48.545Z,60.71
2018-07-14T06:19:16.711Z,59.73
2018-07-14T06:21:44.790Z,59.52
2018-07-14T06:24:12.931Z,58.70
2018-07-14T06:26:41.351Z,58.12
2018-07-14T06:29:09.434Z,58.56
2018-07-14T06:31:37.516Z,57.69
2018-07-14T06:34:06.650Z,57.44
2018-07-14T06:36:34.734Z,56.71
2018-07-14T06:39:02.823Z,55.87
2018-07-14T06:41:30.925Z,56.57
2018-07-14T06:43:59.025Z,56.90
2018-07-14T06:46:27.618Z,57.25
2018-07-14T06:48:55.846Z,57.12
2018-07-14T06:51:24.092Z,56.16
2018-07-14T06:53:52.160Z,56.17
2018-07-14T06:56:20.278Z,56.82
2018-07-14T06:58:48.440Z,56.62
2018-07-14T07:01:16.552Z,56.57
2018-07-14T07:03:44.647Z,55.48
2018-07-14T07:06:12.927Z,55.95
2018-07-14T07:08:41.599Z,55.83
2018-07-14T07:11:09.731Z,54.88
2018-07-14T07:13:37.901Z,55.16
2018-07-14T07:16:06.031Z,54.89
2018-07-14T07:18:34.143Z,54.99
2018-07-14T07:21:02.250Z,54.67
2018-07-14T07:23:30.520Z,53.66
2018-07-14T07:25:58.677Z,53.79
2018-07-14T07:28:26.799Z,53.77
2018-07-14T07:30:54.992Z,52.59
2018-07-14T07:33:23.085Z,51.53
2018-07-14T07:35:51.203Z,50.93
2018-07-14T07:38:19.257Z,50.65
2018-07-14T07:40:47.384Z,50.12
2018-07-14T07:43:15.489Z,49.72
2018-07-14T07:45:43.586Z,50.21
2018-07-14T07:48:11.667Z,49.95
2018-07-14T07:50:39.774Z,50.04
2018-07-14T07:53:07.851Z,49.20
2018-07-14T07:55:35.935Z,49.32
2018-07-14T07:58:04.706Z,48.68
2018-07-14T08:00:32.893Z,48.11
2018-07-14T08:03:01.057Z,48.59
2018-07-14T08:05:29.182Z,48.15
2018-07-14T08:07:57.259Z,48.53
2018-07-14T08:10:25.360Z,48.51
2018-07-14T08:12:53.596Z,47.92
2018-07-14T08:15:21.789Z,48.53
2018-07-14T08:17:50.296Z,47.66
2018-07-14T08:20:19.512Z,47.55
2018-07-14T08:22:47.799Z,48.19
2018-07-14T08:25:16.175Z,47.25
2018-07-14T08:27:44.274Z,47.58
2018-07-14T08:30:12.401Z,47.24
2018-07-14T08:32:40.496Z,47.61
2018-07-14T08:35:08.648Z,47.16
2018-07-14T08:37:39.549Z,46.57
2018-07-14T08:40:07.754Z,46.29
2018-07-14T08:42:35.983Z,46.88
2018-07-14T08:45:04.139Z,46.98
2018-07-14T08:47:32.249Z,46.18
2018-07-14T08:50:00.387Z,46.28
2018-07-14T08:52:28.504Z,44.92
2018-07-14T08:54:56.610Z,45.73
2018-07-14T08:57:24.722Z,45.61
2018-07-14T08:59:52.828Z,44.80
2018-07-14T09:02:20.892Z,44.69
2018-07-14T09:04:49.064Z,44.33
2018-07-14T09:07:17.107Z,43.71
2018-07-14T09:09:45.187Z,43.73
2018-07-14T09:12:13.294Z,43.79
2018-07-14T09:14:42.140Z,43.60
2018-07-14T09:17:10.537Z,42.28
2018-07-14T09:19:38.632Z,42.57
2018-07-14T09:22:06.701Z,42.70
2018-07-14T09:24:34.827Z,43.02
2018-07-14T09:27:03.049Z,42.45
2018-07-14T09:29:31.388Z,42.73
2018-07-14T09:31:59.514Z,43.47
2018-07-14T09:34:27.713Z,43.25
2018-07-14T09:36:55.873Z,42.99
2018-07-14T09:39:23.933Z,40.97
2018-07-14T09:41:51.994Z,40.60
2018-07-14T09:44:20.260Z,40.20
2018-07-14T09:46:48.917Z,40.27
2018-07-14T09:49:16.978Z,40.19
2018-07-14T09:51:45.112Z,39.10
2018-07-14T09:54:13.567Z,37.19
2018-07-14T09:56:42.202Z,38.85
2018-07-14T09:59:10.316Z,38.95
2018-07-14T10:01:39.294Z,38.18
2018-07-14T10:04:07.840Z,38.79
2018-07-14T10:06:36.116Z,37.45
2018-07-14T10:09:04.735Z,38.36
2018-07-14T10:11:32.893Z,38.02
2018-07-14T10:14:00.983Z,38.51
2018-07-14T10:16:29.156Z,35.86
2018-07-14T10:18:57.242Z,37.08
2018-07-14T10:21:25.530Z,35.00
2018-07-14T10:23:53.641Z,35.78
2018-07-14T10:26:22.281Z,35.74
2018-07-14T10:28:50.492Z,36.37
2018-07-14T10:31:18.576Z,36.03
2018-07-14T10:33:46.936Z,35.47
2018-07-14T10:36:15.808Z,35.56
2018-07-14T10:38:43.974Z,35.09
2018-07-14T10:41:12.576Z,34.96
2018-07-14T10:43:40.732Z,34.83
2018-07-14T10:46:08.762Z,34.68
2018-07-14T10:48:36.942Z,35.14
2018-07-14T10:51:05.000Z,34.06
2018-07-14T10:53:33.055Z,34.07
2018-07-14T10:56:01.175Z,34.06
2018-07-14T10:58:29.248Z,33.69
2018-07-14T11:00:57.324Z,34.27
2018-07-14T11:03:25.439Z,33.68
2018-07-14T11:05:53.715Z,32.72
2018-07-14T11:08:22.126Z,32.50
2018-07-14T11:10:50.272Z,32.84
2018-07-14T11:13:20.618Z,31.41
2018-07-14T11:15:48.661Z,32.12
2018-07-14T11:18:41.406Z,32.16
2018-07-14T11:21:22.869Z,30.90
2018-07-14T11:23:51.100Z,30.33
2018-07-14T11:26:19.221Z,32.25
2018-07-14T11:28:47.392Z,30.71
2018-07-14T11:31:15.764Z,29.61
2018-07-14T11:33:43.968Z,31.00
2018-07-14T11:36:12.779Z,30.06
2018-07-14T11:38:41.603Z,29.92
2018-07-14T11:41:09.786Z,28.78
2018-07-14T11:43:37.879Z,28.36
2018-07-14T11:46:05.992Z,27.37
2018-07-14T11:48:34.088Z,27.26
2018-07-14T11:51:02.379Z,27.50
2018-07-14T11:53:30.515Z,26.79
2018-07-14T11:55:58.836Z,25.91
2018-07-14T11:58:27.082Z,24.26
2018-07-14T12:00:55.432Z,23.99
2018-07-14T12:03:23.846Z,23.75
2018-07-14T12:05:51.999Z,23.79
2018-07-14T12:08:20.303Z,22.23
2018-07-14T12:10:48.520Z,21.51
2018-07-14T12:13:16.658Z,21.65
2018-07-14T12:15:44.730Z,21.64
2018-07-14T12:18:19.215Z,21.03
2018-07-14T12:20:47.279Z,21.36
2018-07-14T12:23:15.390Z,20.67
2018-07-14T12:25:43.508Z,20.22
2018-07-14T12:28:12.123Z,21.35
2018-07-14T12:30:40.296Z,19.87
2018-07-14T12:33:08.468Z,20.08
2018-07-14T12:35:36.574Z,18.58
2018-07-14T12:38:04.768Z,19.36
2018-07-14T12:40:32.883Z,18.41
2018-07-14T12:43:01.047Z,18.71
2018-07-14T12:45:29.270Z,17.94
2018-07-14T12:47:57.405Z,16.29
2018-07-14T12:50:25.670Z,16.30
2018-07-14T12:53:02.248Z,17.63
2018-07-14T12:55:43.270Z,18.02
2018-07-14T12:58:11.863Z,18.47
2018-07-14T13:00:39.983Z,17.22
2018-07-14T13:03:09.310Z,18.00
2018-07-14T13:05:37.410Z,18.26
2018-07-14T13:08:05.867Z,16.75
2018-07-14T13:10:34.008Z,16.14
2018-07-14T13:13:02.103Z,15.38
2018-07-14T13:15:30.203Z,17.17
2018-07-14T13:17:58.381Z,15.87
2018-07-14T13:20:26.516Z,15.51
2018-07-14T13:22:54.719Z,16.04
2018-07-14T13:25:22.826Z,14.42
2018-07-14T13:27:50.947Z,14.68
2018-07-14T13:30:19.032Z,14.87
2018-07-14T13:32:47.098Z,13.90
2018-07-14T13:35:15.230Z,13.33
2018-07-14T13:37:43.273Z,13.83
2018-07-14T13:40:11.357Z,14.37
2018-07-14T13:42:39.472Z,13.67
2018-07-14T13:45:07.543Z,16.01
2018-07-14T13:47:35.746Z,17.24
2018-07-14T13:50:03.994Z,18.57
2018-07-14T13:52:32.355Z,17.52
2018-07-14T13:55:01.703Z,18.73
2018-07-14T13:57:30.032Z,17.60
2018-07-14T13:59:58.304Z,18.31
2018-07-14T14:02:26.607Z,18.28
2018-07-14T14:04:55.088Z,16.86
2018-07-14T14:07:25.413Z,16.90
2018-07-14T14:09:53.787Z,18.80
2018-07-14T14:12:22.154Z,18.98
2018-07-14T14:14:50.546Z,20.19
2018-07-14T14:17:19.317Z,20.30
2018-07-14T14:19:47.769Z,20.14
2018-07-14T14:22:16.036Z,20.83
2018-07-14T14:24:44.274Z,21.59
2018-07-14T14:27:13.372Z,20.77
2018-07-14T14:29:41.832Z,21.05
2018-07-14T14:32:10.106Z,20.17
2018-07-14T14:34:38.276Z,20.04
2018-07-14T14:37:06.554Z,18.70
2018-07-14T14:39:35.630Z,16.86
2018-07-14T14:42:05.714Z,15.96
2018-07-14T14:44:35.330Z,18.55
2018-07-14T14:47:03.688Z,19.25
2018-07-14T14:49:31.956Z,19.36
2018-07-14T14:52:00.255Z,18.21
2018-07-14T14:54:28.754Z,18.42
2018-07-14T14:56:56.872Z,18.56
2018-07-14T14:59:25.465Z,19.83
2018-07-14T15:01:53.828Z,19.56
2018-07-14T15:04:22.227Z,19.41
2018-07-14T15:06:50.737Z,17.49
2018-07-14T15:09:18.962Z,18.81
2018-07-14T15:11:47.328Z,17.30
2018-07-14T15:14:15.760Z,17.42
2018-07-14T15:16:45.633Z,19.12
2018-07-14T15:19:14.306Z,19.32
2018-07-14T15:21:42.824Z,20.23
2018-07-14T15:24:11.068Z,19.36
2018-07-14T15:26:39.793Z,19.81
2018-07-14T15:29:08.346Z,21.15
2018-07-14T15:31:37.930Z,19.61
2018-07-14T15:34:06.920Z,19.94
2018-07-14T15:36:35.542Z,20.93
2018-07-14T15:39:05.066Z,20.29
2018-07-14T15:41:33.348Z,20.95
2018-07-14T15:44:01.606Z,20.28
2018-07-14T15:46:29.762Z,21.13
2018-07-14T15:48:58.051Z,21.77
2018-07-14T15:51:26.360Z,22.14
2018-07-14T15:53:54.612Z,20.92
2018-07-14T15:56:22.742Z,20.98
2018-07-14T15:58:51.375Z,20.91
2018-07-14T16:01:19.942Z,21.53
2018-07-14T16:03:48.151Z,21.57
2018-07-14T16:06:16.255Z,19.94
2018-07-14T16:08:44.408Z,21.17
2018-07-14T16:11:12.596Z,22.30
2018-07-14T16:13:41.511Z,21.47
2018-07-14T16:16:09.687Z,21.46
2018-07-14T16:18:38.100Z,22.33
2018-07-14T16:21:06.537Z,22.17
2018-07-14T16:23:34.851Z,22.11
2018-07-14T16:26:02.965Z,21.68
2018-07-14T16:28:31.201Z,22.94
2018-07-14T16:31:00.353Z,22.76
2018-07-14T16:33:28.541Z,22.84
2018-07-14T16:35:56.774Z,23.43
2018-07-14T16:38:24.883Z,23.14
2018-07-14T16:40:52.964Z,23.20
2018-07-14T16:43:21.086Z,23.58
2018-07-14T16:45:49.143Z,22.86
2018-07-14T16:48:17.699Z,24.69
2018-07-14T16:50:45.815Z,24.28
2018-07-14T16:53:14.643Z,24.48
2018-07-14T16:55:42.959Z,23.68
2018-07-14T16:58:11.054Z,24.02
2018-07-14T17:00:39.337Z,23.59
2018-07-14T17:03:07.389Z,23.93
2018-07-14T17:05:35.459Z,24.33
2018-07-14T17:08:03.586Z,24.62
2018-07-14T17:10:31.739Z,23.81
2018-07-14T17:12:59.904Z,24.42
2018-07-14T17:15:27.958Z,23.81
2018-07-14T17:17:56.075Z,24.51
2018-07-14T17:20:24.310Z,25.67
2018-07-14T17:22:52.384Z,24.87
2018-07-14T17:25:20.564Z,24.37
2018-07-14T17:27:48.759Z,24.46
2018-07-14T17:30:17.735Z,24.48
2018-07-14T17:32:45.879Z,24.88
2018-07-14T17:35:14.410Z,24.64
2018-07-14T17:37:42.515Z,25.19
2018-07-14T17:40:10.576Z,24.81
2018-07-14T17:42:38.649Z,25.30
2018-07-14T17:45:06.986Z,25.69
2018-07-14T17:47:35.093Z,24.80
2018-07-14T17:50:03.541Z,25.14
2018-07-14T17:52:31.707Z,25.38
2018-07-14T17:54:59.776Z,25.33
2018-07-14T17:57:27.897Z,26.16
2018-07-14T17:59:56.042Z,25.35
2018-07-14T18:02:24.304Z,25.20
2018-07-14T18:04:52.446Z,25.45
2018-07-14T18:07:20.582Z,25.55
2018-07-14T18:09:48.712Z,26.76
2018-07-14T18:12:16.776Z,26.05
2018-07-14T18:14:45.607Z,26.08
2018-07-14T18:17:14.822Z,26.30
2018-07-14T18:19:42.865Z,26.44
2018-07-14T18:22:11.040Z,26.59
2018-07-14T18:24:39.292Z,27.29
2018-07-14T18:27:07.439Z,26.29
2018-07-14T18:29:35.521Z,26.63
2018-07-14T18:32:03.638Z,26.41
2018-07-14T18:34:31.771Z,27.59
2018-07-14T18:36:59.883Z,27.08
2018-07-14T18:39:27.956Z,27.76
2018-07-14T18:41:56.045Z,28.25
2018-07-14T18:44:24.501Z,27.88
2018-07-14T18:46:52.570Z,28.29
2018-07-14T18:49:20.667Z,28.28
2018-07-14T18:51:48.974Z,29.01
2018-07-14T18:54:17.093Z,29.09
2018-07-14T18:56:45.390Z,29.74
2018-07-14T18:59:14.749Z,29.74
2018-07-14T19:01:42.816Z,29.29
2018-07-14T19:04:10.902Z,28.80
2018-07-14T19:06:38.986Z,30.76
2018-07-14T19:09:07.167Z,29.97
2018-07-14T19:11:35.174Z,30.65
2018-07-14T19:14:03.324Z,29.86
2018-07-14T19:16:31.450Z,29.23
2018-07-14T19:18:59.552Z,31.20
2018-07-14T19:21:27.661Z,30.82
2018-07-14T19:23:56.241Z,30.71
2018-07-14T19:26:24.488Z,31.83
2018-07-14T19:28:52.657Z,31.80
2018-07-14T19:31:21.423Z,30.99
2018-07-14T19:33:49.597Z,32.42
2018-07-14T19:36:17.652Z,32.14
2018-07-14T19:38:45.821Z,31.98
2018-07-14T19:41:15.020Z,32.49
2018-07-14T19:43:43.102Z,32.28
2018-07-14T19:46:11.197Z,31.10
2018-07-14T19:48:51.929Z,32.27
2018-07-14T19:51:23.120Z,33.06
2018-07-14T19:53:51.293Z,31.93
2018-07-14T19:56:19.418Z,32.87
2018-07-14T19:58:47.455Z,32.36
2018-07-14T20:01:15.779Z,33.51
2018-07-14T20:03:44.085Z,34.30
2018-07-14T20:06:12.305Z,33.77
2018-07-14T20:08:43.697Z,33.48
2018-07-14T20:11:11.992Z,33.95
2018-07-14T20:13:40.160Z,33.97
2018-07-14T20:16:09.703Z,34.22
2018-07-14T20:18:38.215Z,35.28
2018-07-14T20:21:06.418Z,34.93
2018-07-14T20:23:34.693Z,34.92
2018-07-14T20:26:02.750Z,34.52
2018-07-14T20:28:30.844Z,34.69
2018-07-14T20:30:58.979Z,34.77
2018-07-14T20:33:27.124Z,35.05
2018-07-14T20:35:55.779Z,35.77
2018-07-14T20:38:23.866Z,36.24
2018-07-14T20:40:51.993Z,35.81
2018-07-14T20:43:20.054Z,36.17
2018-07-14T20:45:48.187Z,36.31
2018-07-14T20:48:16.336Z,36.20
2018-07-14T20:50:45.610Z,36.01
2018-07-14T20:53:13.735Z,35.81
2018-07-14T20:55:41.972Z,35.87
2018-07-14T20:58:10.053Z,36.53
2018-07-14T21:00:38.178Z,36.35
2018-07-14T21:03:06.475Z,36.74
2018-07-14T21:05:34.668Z,37.82
2018-07-14T21:08:02.774Z,37.06
2018-07-14T21:10:30.887Z,37.32
2018-07-14T21:12:58.980Z,37.19
2018-07-14T21:15:27.069Z,37.47
2018-07-14T21:17:55.237Z,37.98
2018-07-14T21:20:23.323Z,38.12
2018-07-14T21:22:51.883Z,38.00
2018-07-14T21:25:20.016Z,39.09
2018-07-14T21:27:48.144Z,40.20
2018-07-14T21:30:16.300Z,39.65
2018-07-14T21:32:44.371Z,39.36
2018-07-14T21:35:12.475Z,39.73
2018-07-14T21:37:40.525Z,39.51
2018-07-14T21:40:08.689Z,41.06
2018-07-14T21:42:36.723Z,40.28
2018-07-14T21:45:04.852Z,40.69
2018-07-14T21:47:32.909Z,41.58
2018-07-14T21:50:00.968Z,42.11
2018-07-14T21:52:29.510Z,41.24
2018-07-14T21:54:58.612Z,41.44
2018-07-14T21:57:26.677Z,42.25
2018-07-14T21:59:54.793Z,41.94
2018-07-14T22:02:22.864Z,41.43
2018-07-14T22:04:50.932Z,42.63
2018-07-14T22:07:19.017Z,41.58
2018-07-14T22:09:47.700Z,42.86
2018-07-14T22:12:18.983Z,42.91
2018-07-14T22:14:47.872Z,42.57
2018-07-14T22:17:15.945Z,42.44
2018-07-14T22:19:44.012Z,43.33
2018-07-14T22:22:12.100Z,42.07
2018-07-14T22:24:40.171Z,42.59
2018-07-14T22:27:08.372Z,43.04
2018-07-14T22:29:36.494Z,42.83
2018-07-14T22:32:04.596Z,43.59
2018-07-14T22:34:32.684Z,44.69
2018-07-14T22:37:00.872Z,44.20
2018-07-14T22:39:29.179Z,43.57
2018-07-14T22:41:57.321Z,44.53
2018-07-14T22:44:25.468Z,43.93
2018-07-14T22:46:53.674Z,44.70
2018-07-14T22:49:21.850Z,44.25
2018-07-14T22:51:50.046Z,45.66
2018-07-14T22:54:18.121Z,43.84
2018-07-14T22:56:46.193Z,44.81
2018-07-14T22:59:14.547Z,44.45
2018-07-14T23:01:42.842Z,44.21
2018-07-14T23:04:10.911Z,44.58
2018-07-14T23:06:39.043Z,44.86
2018-07-14T23:09:07.631Z,44.96
2018-07-14T23:11:35.787Z,45.10
2018-07-14T23:14:03.960Z,46.29
2018-07-14T23:16:32.118Z,46.33
2018-07-14T23:19:00.311Z,45.68
2018-07-14T23:21:28.418Z,45.23
2018-07-14T23:23:56.546Z,46.11
2018-07-14T23:26:24.600Z,45.52
2018-07-14T23:28:52.660Z,46.72
2018-07-14T23:31:20.753Z,46.56
2018-07-14T23:33:48.891Z,46.90
2018-07-14T23:36:17.024Z,47.11
2018-07-14T23:38:45.087Z,46.91
2018-07-14T23:41:13.190Z,46.56
2018-07-14T23:43:41.363Z,47.17
2018-07-14T23:46:09.617Z,47.25
2018-07-14T23:48:37.667Z,46.72
2018-07-14T23:51:06.103Z,46.81
2018-07-14T23:53:34.154Z,47.54
2018-07-14T23:56:02.521Z,48.03
2018-07-14T23:58:30.566Z,47.33
